Parbold, United Kingdom
Current Conditions -  °F | °C
As of 11:20 AM on Tuesday 21 Oct 2014 (Local Time) from EGNO Reporting Station
Broken Clouds Broken Clouds  
Wind Chill: 54°   Ceiling: 3300
Heat Index: 54°   Visibility: 6mi
Dew Point: 41°   Wind: 31mph
Humidity: 62%   Direction: 290°WNW
Pressure: 29.56"   Gusts: 44mph
Location:  53.59°N, 2.77°W
Report Text: EGNO 211020Z 29027G38KT 9999 BKN033 12/05 Q1001
Loading
Personal Weather Stations






























Interactive Weather Map New forecast layout! Learn more

10-Day Weather Forecast

Advertisements
Track Severe Weather on mobile